createdAt,value
2023-01-04T00:01:50.540Z,8.43
2023-01-04T00:04:16.961Z,8.63
2023-01-04T00:06:43.434Z,8.57
2023-01-04T00:09:09.895Z,8.25
2023-01-04T00:11:36.352Z,8.82
2023-01-04T00:14:02.920Z,8.63
2023-01-04T00:16:29.811Z,8.30
2023-01-04T00:18:57.171Z,8.00
2023-01-04T00:21:26.482Z,9.15
2023-01-04T00:23:55.258Z,7.60
2023-01-04T00:26:35.977Z,8.18
2023-01-04T00:29:05.859Z,8.55
2023-01-04T00:31:33.495Z,8.63
2023-01-04T00:34:02.527Z,8.30
2023-01-04T00:36:29.653Z,8.15
2023-01-04T00:39:08.602Z,8.27
2023-01-04T00:42:01.670Z,7.72
2023-01-04T00:44:29.147Z,8.15
2023-01-04T00:46:55.758Z,9.00
2023-01-04T00:49:22.262Z,9.07
2023-01-04T00:51:48.804Z,8.38
2023-01-04T00:54:15.984Z,8.02
2023-01-04T00:56:43.516Z,7.60
2023-01-04T00:59:12.608Z,7.22
2023-01-04T01:01:40.303Z,8.45
2023-01-04T01:04:06.982Z,8.23
2023-01-04T01:06:34.116Z,8.35
2023-01-04T01:09:01.032Z,7.65
2023-01-04T01:11:28.248Z,7.70
2023-01-04T01:13:55.510Z,7.40
2023-01-04T01:16:51.829Z,8.48
2023-01-04T01:19:10.969Z,7.35
2023-01-04T01:21:38.189Z,7.03
2023-01-04T01:24:06.041Z,7.63
2023-01-04T01:26:32.621Z,6.72
2023-01-04T01:28:59.384Z,7.10
2023-01-04T01:31:28.223Z,7.00
2023-01-04T01:33:56.304Z,6.85
2023-01-04T01:36:24.353Z,6.60
2023-01-04T01:38:50.988Z,6.63
2023-01-04T01:41:27.467Z,6.78
2023-01-04T01:44:05.350Z,5.65
2023-01-04T01:47:01.470Z,6.65
2023-01-04T01:49:37.686Z,5.78
2023-01-04T01:52:10.501Z,6.15
2023-01-04T01:54:42.406Z,6.03
2023-01-04T01:57:13.773Z,6.18
2023-01-04T01:59:44.000Z,5.78
2023-01-04T02:02:11.029Z,6.05
2023-01-04T02:04:41.722Z,6.40
2023-01-04T02:07:26.844Z,5.97
2023-01-04T02:09:54.829Z,5.38
2023-01-04T02:12:21.321Z,5.40
2023-01-04T02:14:50.663Z,6.25
2023-01-04T02:17:42.318Z,5.97
2023-01-04T02:20:25.843Z,5.63
2023-01-04T02:23:10.458Z,6.00
2023-01-04T02:26:10.184Z,6.57
2023-01-04T02:29:13.252Z,6.57
2023-01-04T02:31:59.074Z,6.15
2023-01-04T02:35:03.410Z,6.78
2023-01-04T02:37:50.096Z,6.03
2023-01-04T02:40:44.916Z,6.63
2023-01-04T02:43:49.004Z,7.75
2023-01-04T02:46:38.679Z,6.75
2023-01-04T02:49:23.739Z,6.43
2023-01-04T02:51:50.376Z,6.78
2023-01-04T02:54:23.199Z,7.35
2023-01-04T02:57:15.876Z,6.93
2023-01-04T03:00:10.271Z,6.03
2023-01-04T03:03:17.054Z,6.90
2023-01-04T03:06:17.095Z,6.22
2023-01-04T03:08:53.752Z,6.65
2023-01-04T03:11:39.722Z,6.00
2023-01-04T03:14:30.871Z,6.57
2023-01-04T03:17:02.181Z,7.82
2023-01-04T03:19:49.611Z,6.47
2023-01-04T03:22:39.043Z,6.82
2023-01-04T03:25:28.996Z,7.05
2023-01-04T03:28:16.164Z,6.75
2023-01-04T03:31:09.913Z,6.28
2023-01-04T03:33:55.907Z,6.43
2023-01-04T03:37:06.316Z,6.40
2023-01-04T03:40:03.193Z,6.82
2023-01-04T03:42:53.740Z,5.97
2023-01-04T03:45:43.775Z,6.35
2023-01-04T03:48:30.623Z,6.50
2023-01-04T03:51:20.915Z,6.63
2023-01-04T03:54:04.859Z,7.10
2023-01-04T03:56:32.861Z,6.55
2023-01-04T03:59:00.260Z,6.40
2023-01-04T04:01:28.193Z,6.57
2023-01-04T04:04:14.069Z,7.05
2023-01-04T04:06:59.559Z,6.07
2023-01-04T04:09:26.180Z,6.43
2023-01-04T04:11:53.492Z,6.25
2023-01-04T04:14:19.970Z,7.28
2023-01-04T04:16:46.512Z,6.65
2023-01-04T04:19:12.992Z,6.10
2023-01-04T04:21:39.655Z,6.00
2023-01-04T04:24:06.687Z,6.75
2023-01-04T04:26:33.267Z,6.97
2023-01-04T04:28:59.747Z,6.32
2023-01-04T04:31:26.361Z,6.30
2023-01-04T04:33:52.953Z,7.53
2023-01-04T04:36:19.429Z,6.22
2023-01-04T04:38:45.829Z,6.82
2023-01-04T04:41:32.366Z,6.20
2023-01-04T04:43:58.895Z,6.95
2023-01-04T04:46:25.447Z,7.07
2023-01-04T04:48:51.953Z,6.07
2023-01-04T04:51:18.651Z,6.57
2023-01-04T04:53:45.162Z,6.90
2023-01-04T04:56:11.687Z,6.10
2023-01-04T04:58:38.785Z,6.07
2023-01-04T05:01:05.664Z,6.93
2023-01-04T05:03:32.437Z,6.25
2023-01-04T05:05:59.394Z,6.30
2023-01-04T05:08:25.933Z,6.68
2023-01-04T05:10:53.179Z,6.43
2023-01-04T05:13:19.713Z,5.90
2023-01-04T05:15:48.867Z,5.88
2023-01-04T05:18:18.092Z,5.95
2023-01-04T05:20:44.627Z,5.40
2023-01-04T05:23:13.705Z,5.82
2023-01-04T05:25:40.948Z,5.47
2023-01-04T05:28:08.401Z,6.10
2023-01-04T05:30:50.614Z,6.32
2023-01-04T05:33:24.915Z,6.10
2023-01-04T05:35:52.732Z,6.22
2023-01-04T05:38:19.810Z,5.95
2023-01-04T05:40:48.462Z,5.60
2023-01-04T05:43:16.549Z,5.70
2023-01-04T05:45:44.630Z,5.63
2023-01-04T05:48:11.124Z,5.80
2023-01-04T05:50:37.608Z,5.30
2023-01-04T05:53:07.513Z,5.50
2023-01-04T05:55:34.267Z,5.60
2023-01-04T05:58:00.984Z,5.10
2023-01-04T06:00:27.499Z,5.57
2023-01-04T06:02:55.425Z,5.00
2023-01-04T06:05:22.641Z,4.63
2023-01-04T06:07:49.111Z,4.95
2023-01-04T06:10:15.784Z,5.03
2023-01-04T06:12:42.648Z,4.65
2023-01-04T06:15:10.579Z,6.00
2023-01-04T06:17:37.888Z,5.18
2023-01-04T06:20:06.820Z,4.93
2023-01-04T06:22:33.461Z,4.88
2023-01-04T06:24:59.918Z,4.30
2023-01-04T06:27:26.405Z,4.40
2023-01-04T06:29:53.281Z,3.90
2023-01-04T06:32:20.050Z,3.80
2023-01-04T06:34:46.685Z,4.20
2023-01-04T06:37:13.176Z,3.40
2023-01-04T06:39:39.724Z,3.45
2023-01-04T06:42:07.360Z,3.40
2023-01-04T06:44:34.068Z,3.83
2023-01-04T06:47:00.602Z,3.30
2023-01-04T06:49:27.154Z,3.78
2023-01-04T06:51:53.559Z,4.20
2023-01-04T06:54:20.161Z,3.20
2023-01-04T06:56:46.691Z,3.33
2023-01-04T06:59:13.113Z,3.17
2023-01-04T07:01:39.624Z,3.17
2023-01-04T07:04:06.218Z,3.13
2023-01-04T07:06:32.737Z,3.45
2023-01-04T07:08:59.200Z,4.95
2023-01-04T07:11:25.690Z,7.18
2023-01-04T07:13:52.850Z,4.53
2023-01-04T07:16:20.530Z,2.78
2023-01-04T07:18:47.068Z,3.00
2023-01-04T07:21:13.557Z,2.75
2023-01-04T07:23:40.124Z,2.83
2023-01-04T07:26:06.622Z,2.78
2023-01-04T07:28:51.393Z,2.90
2023-01-04T07:31:17.957Z,2.97
2023-01-04T07:33:44.502Z,3.20
2023-01-04T07:36:10.959Z,2.67
2023-01-04T07:38:39.497Z,3.05
2023-01-04T07:41:06.058Z,2.90
2023-01-04T07:43:32.537Z,3.47
2023-01-04T07:45:59.105Z,3.28
2023-01-04T07:48:25.593Z,2.70
2023-01-04T07:50:52.102Z,3.00
2023-01-04T07:53:18.838Z,3.03
2023-01-04T07:55:45.284Z,3.30
2023-01-04T07:58:11.847Z,3.13
2023-01-04T08:00:38.375Z,3.15
2023-01-04T08:03:05.011Z,3.33
2023-01-04T08:05:34.883Z,3.75
2023-01-04T08:08:01.498Z,3.03
2023-01-04T08:10:28.117Z,3.63
2023-01-04T08:12:54.920Z,3.00
2023-01-04T08:15:21.412Z,3.45
2023-01-04T08:17:47.897Z,2.85
2023-01-04T08:20:14.556Z,3.00
2023-01-04T08:22:41.034Z,2.80
2023-01-04T08:25:07.724Z,2.85
2023-01-04T08:27:34.275Z,3.28
2023-01-04T08:30:00.760Z,3.60
2023-01-04T08:32:27.350Z,3.50
2023-01-04T08:34:54.272Z,3.42
2023-01-04T08:37:21.125Z,3.20
2023-01-04T08:39:49.575Z,3.10
2023-01-04T08:42:24.805Z,3.28
2023-01-04T08:44:59.266Z,4.10
2023-01-04T08:49:52.982Z,3.78
2023-01-04T08:52:19.495Z,4.07
2023-01-04T08:54:46.119Z,3.92
2023-01-04T08:57:12.818Z,4.05
2023-01-04T08:59:39.405Z,4.13
2023-01-04T09:02:19.984Z,4.25
2023-01-04T09:04:46.633Z,3.85
2023-01-04T09:07:13.417Z,4.30
2023-01-04T09:09:39.870Z,4.28
2023-01-04T09:12:06.360Z,4.00
2023-01-04T09:14:32.931Z,5.47
2023-01-04T09:16:59.475Z,5.40
2023-01-04T09:19:26.207Z,4.78
2023-01-04T09:21:52.845Z,5.03
2023-01-04T09:24:19.414Z,5.28
2023-01-04T09:26:47.533Z,5.57
2023-01-04T09:29:15.495Z,5.03
2023-01-04T09:31:42.046Z,5.18
2023-01-04T09:34:14.646Z,5.55
2023-01-04T09:36:42.463Z,5.15
2023-01-04T09:39:13.228Z,4.60
2023-01-04T09:41:52.951Z,5.60
2023-01-04T09:47:45.524Z,5.82
2023-01-04T09:50:34.410Z,5.50
2023-01-04T09:53:06.527Z,5.40
2023-01-04T09:55:41.514Z,5.40
2023-01-04T09:58:20.745Z,5.70
2023-01-04T10:00:52.260Z,5.40
2023-01-04T10:05:48.671Z,6.20
2023-01-04T10:08:20.087Z,5.15
2023-01-04T10:11:14.481Z,6.15
2023-01-04T10:14:07.519Z,5.35
2023-01-04T10:17:12.923Z,5.35
2023-01-04T10:23:12.389Z,5.78
2023-01-04T10:25:57.837Z,5.90
2023-01-04T10:28:34.089Z,6.28
2023-01-04T10:31:39.857Z,6.25
2023-01-04T10:34:06.299Z,6.22
2023-01-04T10:36:32.940Z,6.07
2023-01-04T10:39:03.070Z,6.90
2023-01-04T10:41:40.376Z,6.03
2023-01-04T10:44:17.516Z,6.22
2023-01-04T10:46:53.113Z,6.38
2023-01-04T10:49:40.322Z,6.32
2023-01-04T10:52:16.734Z,6.18
2023-01-04T10:54:53.189Z,6.13
2023-01-04T10:57:39.437Z,5.60
2023-01-04T11:00:19.873Z,5.60
2023-01-04T11:03:11.501Z,5.57
2023-01-04T11:05:41.433Z,6.13
2023-01-04T11:08:37.022Z,5.22
2023-01-04T11:11:12.412Z,5.75
2023-01-04T11:13:39.114Z,5.07
2023-01-04T11:16:06.419Z,5.38
2023-01-04T11:18:36.433Z,5.28
2023-01-04T11:21:09.040Z,5.85
2023-01-04T11:23:35.594Z,4.72
2023-01-04T11:26:16.794Z,5.72
2023-01-04T11:28:51.855Z,5.30
2023-01-04T11:31:30.428Z,4.63
2023-01-04T11:33:59.623Z,5.00
2023-01-04T11:36:39.814Z,4.75
2023-01-04T11:39:17.965Z,3.95
2023-01-04T11:42:05.962Z,4.22
2023-01-04T11:44:34.431Z,4.63
2023-01-04T11:47:20.002Z,3.80
2023-01-04T11:49:46.784Z,4.65
2023-01-04T11:52:37.109Z,3.80
2023-01-04T11:55:16.772Z,3.20
2023-01-04T11:57:43.329Z,3.60
2023-01-04T12:00:15.499Z,3.67
2023-01-04T12:03:00.949Z,3.88
2023-01-04T12:05:32.288Z,3.45
2023-01-04T12:07:59.397Z,3.63
2023-01-04T12:10:27.781Z,2.97
2023-01-04T12:12:55.789Z,3.20
2023-01-04T12:16:12.860Z,3.45
2023-01-04T12:18:42.133Z,3.70
2023-01-04T12:21:16.626Z,3.67
2023-01-04T12:23:43.598Z,3.05
2023-01-04T12:26:12.074Z,3.67
2023-01-04T12:28:41.749Z,3.25
2023-01-04T12:31:21.650Z,3.47
2023-01-04T12:34:25.980Z,3.63
2023-01-04T12:36:59.960Z,2.78
2023-01-04T12:39:43.815Z,3.33
2023-01-04T12:42:17.856Z,3.70
2023-01-04T12:44:47.119Z,3.55
2023-01-04T12:47:38.072Z,3.35
2023-01-04T12:50:13.881Z,3.40
2023-01-04T12:55:51.434Z,3.63
2023-01-04T13:01:25.344Z,4.15
2023-01-04T13:04:04.334Z,3.90
2023-01-04T13:06:41.078Z,3.80
2023-01-04T13:09:28.000Z,3.90
2023-01-04T13:12:16.760Z,4.03
2023-01-04T13:14:47.833Z,4.57
2023-01-04T13:17:21.203Z,3.05
2023-01-04T13:19:49.321Z,4.25
2023-01-04T13:22:30.405Z,4.57
2023-01-04T13:24:59.304Z,4.18
2023-01-04T13:27:26.767Z,4.25
2023-01-04T13:29:53.794Z,4.50
2023-01-04T13:32:46.919Z,4.65
2023-01-04T13:35:21.216Z,4.07
2023-01-04T13:37:49.953Z,4.57
2023-01-04T13:40:37.383Z,4.50
2023-01-04T13:43:18.764Z,4.38
2023-01-04T13:46:05.774Z,4.55
2023-01-04T13:48:38.295Z,4.25
2023-01-04T13:53:40.793Z,4.65
2023-01-04T13:56:21.719Z,4.47
2023-01-04T13:58:48.284Z,3.83
2023-01-04T14:01:23.796Z,4.55
2023-01-04T14:03:53.355Z,4.93
2023-01-04T14:06:25.827Z,4.53
2023-01-04T14:09:16.777Z,4.38
2023-01-04T14:12:12.241Z,4.90
2023-01-04T14:14:50.747Z,4.75
2023-01-04T14:17:17.260Z,5.45
2023-01-04T14:19:45.702Z,4.70
2023-01-04T14:22:21.021Z,4.30
2023-01-04T14:27:42.523Z,4.55
2023-01-04T14:30:18.313Z,5.03
2023-01-04T14:32:58.477Z,4.32
2023-01-04T14:35:26.875Z,4.25
2023-01-04T14:37:54.350Z,4.10
2023-01-04T14:40:31.135Z,5.15
2023-01-04T14:42:58.353Z,3.83
2023-01-04T14:45:25.267Z,4.30
2023-01-04T14:47:51.735Z,4.40
2023-01-04T14:50:18.397Z,4.10
2023-01-04T14:52:54.564Z,3.63
2023-01-04T14:55:23.237Z,3.78
2023-01-04T14:57:49.761Z,3.95
2023-01-04T15:00:19.397Z,3.08
2023-01-04T15:02:50.110Z,3.42
2023-01-04T15:05:20.082Z,3.33
2023-01-04T15:07:46.985Z,3.20
2023-01-04T15:10:22.965Z,3.30
2023-01-04T15:12:49.731Z,2.97
2023-01-04T15:15:16.450Z,2.95
2023-01-04T15:17:42.927Z,2.97
2023-01-04T15:20:09.904Z,2.80
2023-01-04T15:22:36.562Z,3.17
2023-01-04T15:25:03.288Z,3.20
2023-01-04T15:27:32.634Z,2.60
2023-01-04T15:30:00.339Z,2.63
2023-01-04T15:32:26.873Z,2.40
2023-01-04T15:34:55.592Z,3.33
2023-01-04T15:37:24.123Z,3.03
2023-01-04T15:39:53.224Z,3.20
2023-01-04T15:42:42.427Z,2.67
2023-01-04T15:45:09.514Z,2.30
2023-01-04T15:47:35.970Z,2.38
2023-01-04T15:50:02.629Z,2.30
2023-01-04T15:52:29.156Z,2.22
2023-01-04T15:54:55.649Z,2.50
2023-01-04T15:57:24.073Z,2.53
2023-01-04T15:59:50.631Z,2.50
2023-01-04T16:02:17.200Z,2.10
2023-01-04T16:04:45.856Z,2.30
2023-01-04T16:07:12.637Z,2.33
2023-01-04T16:09:39.446Z,2.40
2023-01-04T16:12:25.442Z,2.28
2023-01-04T16:14:52.736Z,2.40
2023-01-04T16:17:19.687Z,2.60
2023-01-04T16:19:46.291Z,2.58
2023-01-04T16:22:13.056Z,2.20
2023-01-04T16:27:31.169Z,2.33
2023-01-04T16:30:02.399Z,2.40
2023-01-04T16:32:29.015Z,2.55
2023-01-04T16:34:55.738Z,2.47
2023-01-04T16:37:27.885Z,2.42
2023-01-04T16:40:06.369Z,2.10
2023-01-04T16:42:34.282Z,2.42
2023-01-04T16:45:00.824Z,1.70
2023-01-04T16:47:27.353Z,1.52
2023-01-04T16:49:53.997Z,1.50
2023-01-04T16:52:20.731Z,1.40
2023-01-04T16:54:48.348Z,1.50
2023-01-04T16:57:14.851Z,1.90
2023-01-04T16:59:41.473Z,1.65
2023-01-04T17:02:11.229Z,1.38
2023-01-04T17:04:37.771Z,1.30
2023-01-04T17:07:04.941Z,1.45
2023-01-04T17:09:31.662Z,1.60
2023-01-04T17:14:49.026Z,1.30
2023-01-04T17:17:18.832Z,1.50
2023-01-04T17:19:45.859Z,1.38
2023-01-04T17:22:12.560Z,1.23
2023-01-04T17:24:45.046Z,1.17
2023-01-04T17:27:11.625Z,1.20
2023-01-04T17:29:38.078Z,1.10
2023-01-04T17:32:04.962Z,0.90
2023-01-04T17:34:31.634Z,0.95
2023-01-04T17:36:58.096Z,1.00
2023-01-04T17:39:26.836Z,1.17
2023-01-04T17:41:53.485Z,0.88
2023-01-04T17:44:19.990Z,1.20
2023-01-04T17:46:46.516Z,1.15
2023-01-04T17:49:32.061Z,1.80
2023-01-04T17:51:59.460Z,1.42
2023-01-04T17:54:26.923Z,0.85
2023-01-04T17:56:53.553Z,1.35
2023-01-04T17:59:20.256Z,1.20
2023-01-04T18:01:46.890Z,1.17
2023-01-04T18:04:13.531Z,1.20
2023-01-04T18:06:40.754Z,1.23
2023-01-04T18:09:08.212Z,1.40
2023-01-04T18:11:35.693Z,1.20
2023-01-04T18:14:05.856Z,1.40
2023-01-04T18:16:56.194Z,1.05
2023-01-04T18:19:25.087Z,1.20
2023-01-04T18:21:52.450Z,1.15
2023-01-04T18:27:24.443Z,1.70
2023-01-04T18:29:52.687Z,2.10
2023-01-04T18:32:20.020Z,1.50
2023-01-04T18:34:46.514Z,1.50
2023-01-04T18:37:13.715Z,1.25
2023-01-04T18:39:40.298Z,1.40
2023-01-04T18:42:06.765Z,3.03
2023-01-04T18:44:34.956Z,1.95
2023-01-04T18:47:05.093Z,1.35
2023-01-04T18:49:31.568Z,1.95
2023-01-04T18:51:58.075Z,1.38
2023-01-04T18:54:24.602Z,1.35
2023-01-04T18:56:57.014Z,1.48
2023-01-04T18:59:27.377Z,1.02
2023-01-04T19:01:54.030Z,1.15
2023-01-04T19:04:20.838Z,1.13
2023-01-04T19:06:47.338Z,1.25
2023-01-04T19:09:13.937Z,1.20
2023-01-04T19:11:40.396Z,1.00
2023-01-04T19:14:06.946Z,1.08
2023-01-04T19:16:33.429Z,1.10
2023-01-04T19:19:00.547Z,1.00
2023-01-04T19:21:28.207Z,1.27
2023-01-04T19:23:54.965Z,1.38
2023-01-04T19:26:21.995Z,1.30
2023-01-04T19:28:49.145Z,1.00
2023-01-04T19:31:17.399Z,1.15
2023-01-04T19:33:44.116Z,1.20
2023-01-04T19:36:12.766Z,1.15
2023-01-04T19:38:39.502Z,1.20
2023-01-04T19:41:07.347Z,1.20
2023-01-04T19:43:34.363Z,1.10
2023-01-04T19:46:00.925Z,1.13
2023-01-04T19:48:27.612Z,1.10
2023-01-04T19:51:08.885Z,0.95
2023-01-04T19:53:35.582Z,1.00
2023-01-04T19:56:02.091Z,1.27
2023-01-04T19:58:29.477Z,1.10
2023-01-04T20:00:56.010Z,1.00
2023-01-04T20:03:24.151Z,1.20
2023-01-04T20:05:51.668Z,1.13
2023-01-04T20:08:18.566Z,1.15
2023-01-04T20:10:45.096Z,1.30
2023-01-04T20:13:11.610Z,1.10
2023-01-04T20:15:39.468Z,2.00
2023-01-04T20:18:13.329Z,1.63
2023-01-04T20:20:44.373Z,1.00
2023-01-04T20:23:11.142Z,1.25
2023-01-04T20:25:48.143Z,1.30
2023-01-04T20:28:15.313Z,1.10
2023-01-04T20:30:41.829Z,1.40
2023-01-04T20:33:09.487Z,1.40
2023-01-04T20:35:41.953Z,1.55
2023-01-04T20:38:09.921Z,1.15
2023-01-04T20:40:38.669Z,0.98
2023-01-04T20:43:23.991Z,1.08
2023-01-04T20:45:50.564Z,1.05
2023-01-04T20:48:17.307Z,1.00
2023-01-04T20:50:43.918Z,1.75
2023-01-04T20:53:11.481Z,1.50
2023-01-04T20:55:42.478Z,0.95
2023-01-04T20:58:13.317Z,1.30
2023-01-04T21:00:40.751Z,1.30
2023-01-04T21:03:10.045Z,1.40
2023-01-04T21:05:41.899Z,1.25
2023-01-04T21:10:36.158Z,1.00
2023-01-04T21:13:03.854Z,1.00
2023-01-04T21:15:30.776Z,1.27
2023-01-04T21:17:57.560Z,1.60
2023-01-04T21:20:24.775Z,1.38
2023-01-04T21:22:51.317Z,1.08
2023-01-04T21:25:17.842Z,1.23
2023-01-04T21:27:44.625Z,1.20
2023-01-04T21:30:11.770Z,1.38
2023-01-04T21:32:38.282Z,1.67
2023-01-04T21:35:05.553Z,2.28
2023-01-04T21:37:32.282Z,2.25
2023-01-04T21:39:58.704Z,1.60
2023-01-04T21:42:25.161Z,3.03
2023-01-04T21:44:51.648Z,1.80
2023-01-04T21:47:18.109Z,2.53
2023-01-04T21:49:45.389Z,1.55
2023-01-04T21:52:11.838Z,2.38
2023-01-04T21:54:39.207Z,2.13
2023-01-04T21:57:08.110Z,2.28
2023-01-04T21:59:36.116Z,1.70
2023-01-04T22:02:03.113Z,2.25
2023-01-04T22:04:29.876Z,1.67
2023-01-04T22:06:56.516Z,2.63
2023-01-04T22:09:22.998Z,3.10
2023-01-04T22:11:50.186Z,2.50
2023-01-04T22:14:17.709Z,2.10
2023-01-04T22:16:44.313Z,2.03
2023-01-04T22:19:12.871Z,2.15
2023-01-04T22:21:39.715Z,2.55
2023-01-04T22:24:06.625Z,2.60
2023-01-04T22:26:34.230Z,2.60
2023-01-04T22:29:00.786Z,2.80
2023-01-04T22:31:27.468Z,2.95
2023-01-04T22:33:54.004Z,2.30
2023-01-04T22:36:23.252Z,2.67
2023-01-04T22:38:55.194Z,2.75
2023-01-04T22:41:23.478Z,2.65
2023-01-04T22:44:01.312Z,2.70
2023-01-04T22:46:29.423Z,3.13
2023-01-04T22:48:56.155Z,2.25
2023-01-04T22:51:24.399Z,2.35
2023-01-04T22:53:57.339Z,2.80
2023-01-04T22:56:24.299Z,2.65
2023-01-04T22:58:54.530Z,4.78
2023-01-04T23:01:28.181Z,2.83
2023-01-04T23:03:55.847Z,2.97
2023-01-04T23:06:23.833Z,3.30
2023-01-04T23:08:59.378Z,4.60
2023-01-04T23:11:27.243Z,3.63
2023-01-04T23:13:54.553Z,3.45
2023-01-04T23:16:26.224Z,3.53
2023-01-04T23:18:56.270Z,3.83
2023-01-04T23:21:22.771Z,3.50
2023-01-04T23:23:49.886Z,3.20
2023-01-04T23:26:22.099Z,3.22
2023-01-04T23:28:49.422Z,2.95
2023-01-04T23:31:19.610Z,3.88
2023-01-04T23:33:46.593Z,3.22
2023-01-04T23:36:16.389Z,2.90
2023-01-04T23:38:43.985Z,3.08
2023-01-04T23:41:11.127Z,2.78
2023-01-04T23:43:38.676Z,2.38
2023-01-04T23:46:13.502Z,3.17
2023-01-04T23:48:40.461Z,2.60
2023-01-04T23:51:07.807Z,3.30
2023-01-04T23:53:34.261Z,3.00
2023-01-04T23:56:04.092Z,2.42
2023-01-04T23:58:31.481Z,2.28
